createdAt,value
2018-08-28T00:00:26.111Z,66.24
2018-08-28T00:02:56.842Z,66.53
2018-08-28T00:05:27.470Z,66.76
2018-08-28T00:07:58.087Z,66.46
2018-08-28T00:10:28.861Z,66.51
2018-08-28T00:12:59.470Z,67.07
2018-08-28T00:15:30.516Z,67.27
2018-08-28T00:18:01.071Z,67.79
2018-08-28T00:20:32.019Z,68.02
2018-08-28T00:23:02.783Z,68.02
2018-08-28T00:25:33.781Z,67.86
2018-08-28T00:28:04.349Z,68.18
2018-08-28T00:30:34.971Z,68.41
2018-08-28T00:33:05.729Z,68.61
2018-08-28T00:35:35.787Z,68.84
2018-08-28T00:38:07.005Z,69.09
2018-08-28T00:40:37.583Z,69.24
2018-08-28T00:43:07.511Z,69.54
2018-08-28T00:45:37.962Z,69.12
2018-08-28T00:48:08.615Z,69.04
2018-08-28T00:50:39.565Z,69.42
2018-08-28T00:56:45.490Z,69.52
2018-08-28T00:59:15.407Z,69.64
2018-08-28T01:01:45.281Z,69.80
2018-08-28T01:04:15.237Z,69.98
2018-08-28T01:06:45.175Z,70.23
2018-08-28T01:09:15.121Z,70.51
2018-08-28T01:11:45.097Z,70.31
2018-08-28T01:14:14.995Z,70.45
2018-08-28T01:16:44.887Z,70.58
2018-08-28T01:19:14.793Z,70.66
2018-08-28T01:21:44.912Z,71.03
2018-08-28T01:24:14.889Z,70.84
2018-08-28T01:26:44.829Z,71.13
2018-08-28T01:29:14.849Z,71.30
2018-08-28T01:31:44.793Z,71.46
2018-08-28T01:37:50.670Z,71.47
2018-08-28T01:40:20.650Z,71.37
2018-08-28T01:42:50.785Z,71.76
2018-08-28T01:45:20.765Z,71.60
2018-08-28T01:47:50.695Z,71.70
2018-08-28T01:53:56.324Z,71.47
2018-08-28T01:56:26.439Z,71.67
2018-08-28T01:58:56.433Z,71.43
2018-08-28T02:01:26.365Z,71.85
2018-08-28T02:03:56.424Z,71.83
2018-08-28T02:13:38.124Z,73.52
2018-08-28T02:16:08.146Z,73.97
2018-08-28T02:18:38.038Z,73.72
2018-08-28T02:21:08.088Z,73.75
2018-08-28T02:23:38.044Z,73.32
2018-08-28T02:26:08.054Z,72.90
2018-08-28T02:28:38.012Z,73.26
2018-08-28T02:31:07.973Z,72.98
2018-08-28T02:33:38.001Z,73.17
2018-08-28T02:36:08.808Z,72.86
2018-08-28T02:38:38.792Z,72.91
2018-08-28T02:41:09.025Z,72.79
2018-08-28T02:43:38.904Z,73.79
2018-08-28T02:46:08.719Z,73.45
2018-08-28T02:48:38.567Z,73.12
2018-08-28T02:51:08.654Z,72.89
2018-08-28T02:53:38.558Z,73.02
2018-08-28T02:56:08.487Z,72.98
2018-08-28T02:58:38.609Z,73.52
2018-08-28T03:01:08.500Z,73.72
2018-08-28T03:03:38.530Z,73.97
2018-08-28T03:06:08.545Z,73.47
2018-08-28T03:08:38.909Z,73.38
2018-08-28T03:11:08.857Z,73.68
2018-08-28T03:13:38.969Z,73.09
2018-08-28T03:16:09.089Z,73.02
2018-08-28T03:18:39.197Z,72.98
2018-08-28T03:21:09.288Z,73.19
2018-08-28T03:23:39.654Z,73.21
2018-08-28T03:26:10.022Z,72.82
2018-08-28T03:28:40.141Z,72.57
2018-08-28T03:31:10.022Z,72.50
2018-08-28T03:33:40.026Z,72.68
2018-08-28T03:36:09.998Z,73.00
2018-08-28T03:38:40.232Z,72.89
2018-08-28T03:41:10.435Z,72.90
2018-08-28T03:43:40.417Z,73.22
2018-08-28T03:46:10.288Z,73.06
2018-08-28T03:48:40.182Z,72.82
2018-08-28T03:51:10.578Z,72.38
2018-08-28T03:53:40.599Z,72.16
2018-08-28T03:56:10.478Z,72.04
2018-08-28T03:58:40.357Z,72.03
2018-08-28T04:01:10.742Z,71.97
2018-08-28T04:03:40.746Z,72.36
2018-08-28T04:06:11.574Z,72.49
2018-08-28T04:08:41.466Z,72.30
2018-08-28T04:11:11.308Z,72.99
2018-08-28T04:13:41.141Z,73.18
2018-08-28T04:16:11.074Z,73.37
2018-08-28T04:18:41.027Z,73.42
2018-08-28T04:21:10.885Z,73.90
2018-08-28T04:23:40.804Z,73.53
2018-08-28T04:26:10.675Z,73.97
2018-08-28T04:28:40.508Z,74.45
2018-08-28T04:34:46.603Z,73.93
2018-08-28T04:37:16.465Z,74.34
2018-08-28T04:39:46.332Z,73.98
2018-08-28T04:42:16.315Z,74.36
2018-08-28T04:44:46.271Z,73.70
2018-08-28T04:47:16.292Z,73.93
2018-08-28T04:49:46.349Z,74.36
2018-08-28T04:52:16.357Z,74.69
2018-08-28T04:54:46.881Z,74.57
2018-08-28T04:57:17.059Z,74.00
2018-08-28T04:59:47.324Z,74.21
2018-08-28T05:02:17.346Z,74.96
2018-08-28T05:04:47.400Z,74.84
2018-08-28T05:07:17.352Z,74.81
2018-08-28T05:09:47.267Z,74.74
2018-08-28T05:12:17.293Z,75.16
2018-08-28T05:14:47.200Z,74.80
2018-08-28T05:17:17.182Z,74.03
2018-08-28T05:19:47.113Z,73.65
2018-08-28T05:22:17.132Z,73.90
2018-08-28T05:24:48.064Z,74.08
2018-08-28T05:27:18.224Z,73.55
2018-08-28T05:29:48.726Z,73.36
2018-08-28T05:32:18.686Z,72.77
2018-08-28T05:34:49.346Z,72.82
2018-08-28T05:37:19.866Z,72.41
2018-08-28T05:39:50.376Z,71.92
2018-08-28T05:42:20.806Z,72.09
2018-08-28T05:44:51.300Z,71.29
2018-08-28T05:47:21.862Z,71.14
2018-08-28T05:49:52.356Z,70.55
2018-08-28T05:52:22.796Z,70.38
2018-08-28T05:54:53.292Z,69.57
2018-08-28T05:57:23.863Z,66.77
2018-08-28T05:59:54.492Z,62.36
2018-08-28T06:02:24.974Z,57.66
2018-08-28T06:04:55.416Z,54.58
2018-08-28T06:07:25.864Z,52.78
2018-08-28T06:17:08.614Z,47.84
2018-08-28T06:19:38.981Z,46.67
2018-08-28T06:22:09.696Z,45.67
2018-08-28T06:24:40.438Z,44.62
2018-08-28T06:27:11.036Z,44.46
2018-08-28T06:29:42.502Z,43.40
2018-08-28T06:32:12.896Z,43.30
2018-08-28T06:34:43.350Z,41.99
2018-08-28T06:37:13.782Z,42.21
2018-08-28T06:39:44.406Z,41.89
2018-08-28T06:42:14.833Z,41.47
2018-08-28T06:44:45.840Z,42.18
2018-08-28T06:47:16.284Z,41.71
2018-08-28T06:49:46.682Z,41.73
2018-08-28T06:52:17.022Z,44.04
2018-08-28T06:54:47.600Z,44.47
2018-08-28T06:57:18.023Z,44.55
2018-08-28T06:59:48.671Z,44.45
2018-08-28T07:02:19.073Z,46.40
2018-08-28T07:04:49.660Z,47.07
2018-08-28T07:07:20.274Z,47.76
2018-08-28T07:09:50.788Z,47.88
2018-08-28T07:12:21.217Z,48.85
2018-08-28T07:14:51.784Z,48.53
2018-08-28T07:17:22.222Z,50.02
2018-08-28T07:19:52.648Z,50.95
2018-08-28T07:22:23.066Z,52.19
2018-08-28T07:24:53.447Z,50.67
2018-08-28T07:27:24.402Z,51.68
2018-08-28T07:29:54.794Z,52.99
2018-08-28T07:32:25.197Z,53.94
2018-08-28T07:34:55.568Z,52.07
2018-08-28T07:37:25.970Z,52.21
2018-08-28T07:39:57.096Z,52.31
2018-08-28T07:42:27.461Z,52.47
2018-08-28T07:44:57.922Z,53.44
2018-08-28T07:47:28.238Z,53.15
2018-08-28T07:49:58.613Z,52.58
2018-08-28T07:56:05.842Z,55.10
2018-08-28T07:58:36.219Z,54.22
2018-08-28T08:01:07.103Z,54.55
2018-08-28T08:03:37.731Z,54.59
2018-08-28T08:06:08.487Z,55.82
2018-08-28T08:08:39.119Z,55.38
2018-08-28T08:11:09.501Z,55.58
2018-08-28T08:13:39.899Z,56.00
2018-08-28T08:16:10.732Z,57.15
2018-08-28T08:18:41.239Z,56.75
2018-08-28T08:21:11.618Z,57.94
2018-08-28T08:23:41.957Z,57.12
2018-08-28T08:26:12.331Z,57.05
2018-08-28T08:28:42.674Z,57.14
2018-08-28T08:31:13.552Z,56.81
2018-08-28T08:33:44.021Z,57.48
2018-08-28T08:36:14.385Z,57.30
2018-08-28T08:38:44.732Z,58.48
2018-08-28T08:41:15.109Z,57.70
2018-08-28T08:43:45.619Z,58.51
2018-08-28T08:46:16.681Z,57.97
2018-08-28T08:48:47.528Z,57.88
2018-08-28T08:51:17.986Z,58.97
2018-08-28T08:53:48.663Z,58.63
2018-08-28T08:56:19.025Z,58.84
2018-08-28T08:58:49.369Z,58.46
2018-08-28T09:01:20.041Z,58.05
2018-08-28T09:03:50.418Z,57.93
2018-08-28T09:06:20.809Z,58.74
2018-08-28T09:08:51.163Z,58.19
2018-08-28T09:11:22.005Z,59.13
2018-08-28T09:13:52.425Z,57.08
2018-08-28T09:16:22.929Z,58.44
2018-08-28T09:18:53.240Z,57.41
2018-08-28T09:21:23.615Z,57.55
2018-08-28T09:23:53.938Z,57.85
2018-08-28T09:26:24.293Z,57.88
2018-08-28T09:28:54.713Z,57.05
2018-08-28T09:31:25.066Z,56.50
2018-08-28T09:33:55.622Z,57.47
2018-08-28T09:36:25.983Z,55.72
2018-08-28T09:38:56.370Z,55.67
2018-08-28T09:41:26.752Z,55.45
2018-08-28T09:43:57.163Z,55.61
2018-08-28T09:46:27.696Z,54.61
2018-08-28T09:48:58.069Z,55.55
2018-08-28T09:51:28.563Z,54.34
2018-08-28T09:53:58.897Z,55.56
2018-08-28T09:56:29.269Z,54.49
2018-08-28T09:59:00.148Z,53.95
2018-08-28T10:01:36.646Z,52.97
2018-08-28T10:04:07.889Z,52.96
2018-08-28T10:06:38.360Z,51.76
2018-08-28T10:09:17.034Z,51.89
2018-08-28T10:11:47.565Z,51.94
2018-08-28T10:14:17.872Z,50.90
2018-08-28T10:20:24.443Z,50.72
2018-08-28T10:22:54.795Z,51.75
2018-08-28T10:25:25.320Z,51.54
2018-08-28T10:27:55.652Z,52.57
2018-08-28T10:30:26.127Z,50.52
2018-08-28T10:32:56.580Z,51.32
2018-08-28T10:35:26.946Z,51.49
2018-08-28T10:37:57.420Z,50.84
2018-08-28T10:40:27.990Z,50.41
2018-08-28T10:42:58.686Z,49.87
2018-08-28T10:45:29.072Z,50.60
2018-08-28T10:47:59.436Z,49.68
2018-08-28T10:50:29.811Z,50.06
2018-08-28T10:53:00.191Z,48.58
2018-08-28T10:55:30.778Z,49.25
2018-08-28T10:58:01.084Z,50.40
2018-08-28T11:00:31.464Z,48.75
2018-08-28T11:03:01.825Z,48.11
2018-08-28T11:05:32.758Z,48.78
2018-08-28T11:08:03.342Z,47.08
2018-08-28T11:10:33.698Z,47.05
2018-08-28T11:13:04.124Z,46.80
2018-08-28T11:15:34.514Z,46.81
2018-08-28T11:18:04.987Z,46.63
2018-08-28T11:20:35.509Z,46.38
2018-08-28T11:23:05.897Z,45.86
2018-08-28T11:25:36.220Z,46.43
2018-08-28T11:28:06.682Z,46.46
2018-08-28T11:30:37.040Z,45.16
2018-08-28T11:33:07.553Z,44.84
2018-08-28T11:35:37.946Z,45.83
2018-08-28T11:38:08.484Z,45.29
2018-08-28T11:40:38.976Z,45.08
2018-08-28T11:43:09.376Z,46.18
2018-08-28T11:45:39.883Z,45.60
2018-08-28T11:48:10.446Z,44.66
2018-08-28T11:50:40.792Z,45.00
2018-08-28T11:53:11.226Z,44.30
2018-08-28T11:55:41.798Z,45.34
2018-08-28T11:58:12.152Z,43.49
2018-08-28T12:00:43.356Z,44.72
2018-08-28T12:03:13.790Z,44.57
2018-08-28T12:05:44.509Z,43.72
2018-08-28T12:08:14.938Z,43.17
2018-08-28T12:10:45.389Z,41.75
2018-08-28T12:13:15.851Z,42.27
2018-08-28T12:15:46.314Z,41.87
2018-08-28T12:18:16.783Z,41.62
2018-08-28T12:20:47.226Z,41.04
2018-08-28T12:23:17.680Z,41.13
2018-08-28T12:25:48.053Z,41.16
2018-08-28T12:28:18.424Z,40.37
2018-08-28T12:30:48.839Z,41.27
2018-08-28T12:33:19.181Z,41.08
2018-08-28T12:35:49.525Z,41.40
2018-08-28T12:38:19.917Z,41.60
2018-08-28T12:40:50.237Z,39.50
2018-08-28T12:43:20.643Z,39.67
2018-08-28T12:45:51.189Z,39.79
2018-08-28T12:48:21.255Z,39.13
2018-08-28T12:50:52.639Z,40.56
2018-08-28T12:53:22.977Z,40.76
2018-08-28T12:55:53.286Z,40.58
2018-08-28T12:58:23.685Z,40.95
2018-08-28T13:00:54.099Z,41.59
2018-08-28T13:03:24.513Z,40.40
2018-08-28T13:05:55.393Z,40.11
2018-08-28T13:08:25.738Z,40.16
2018-08-28T13:10:56.356Z,40.90
2018-08-28T13:13:26.829Z,38.59
2018-08-28T13:15:56.907Z,37.89
2018-08-28T13:18:27.393Z,38.16
2018-08-28T13:20:57.581Z,36.70
2018-08-28T13:23:27.714Z,38.73
2018-08-28T13:25:58.129Z,38.58
2018-08-28T13:28:28.255Z,40.46
2018-08-28T13:30:58.817Z,37.38
2018-08-28T13:33:29.367Z,37.83
2018-08-28T13:35:59.685Z,37.74
2018-08-28T13:38:30.179Z,37.23
2018-08-28T13:41:00.729Z,37.66
2018-08-28T13:43:30.845Z,37.01
2018-08-28T13:46:00.976Z,36.77
2018-08-28T13:48:31.384Z,36.92
2018-08-28T13:51:01.449Z,36.48
2018-08-28T13:53:31.623Z,36.28
2018-08-28T13:56:01.791Z,35.39
2018-08-28T13:58:31.889Z,35.97
2018-08-28T14:01:01.965Z,36.04
2018-08-28T14:03:32.221Z,36.48
2018-08-28T14:06:02.223Z,35.65
2018-08-28T14:08:32.284Z,34.88
2018-08-28T14:11:02.339Z,35.07
2018-08-28T14:13:32.475Z,35.03
2018-08-28T14:16:02.673Z,35.88
2018-08-28T14:18:32.837Z,37.36
2018-08-28T14:21:03.221Z,36.08
2018-08-28T14:23:33.590Z,35.79
2018-08-28T14:26:04.086Z,37.12
2018-08-28T14:28:34.462Z,36.99
2018-08-28T14:31:05.042Z,37.61
2018-08-28T14:33:35.538Z,36.21
2018-08-28T14:36:05.728Z,36.48
2018-08-28T14:38:36.290Z,36.62
2018-08-28T14:41:07.205Z,36.16
2018-08-28T14:43:37.277Z,35.72
2018-08-28T14:46:08.290Z,35.31
2018-08-28T14:48:38.633Z,34.40
2018-08-28T14:51:09.060Z,33.87
2018-08-28T14:53:39.430Z,34.79
2018-08-28T14:56:09.789Z,35.16
2018-08-28T14:58:39.840Z,34.88
2018-08-28T15:01:09.922Z,34.58
2018-08-28T15:03:40.364Z,35.24
2018-08-28T15:06:10.720Z,34.96
2018-08-28T15:08:41.160Z,35.34
2018-08-28T15:11:11.994Z,36.14
2018-08-28T15:13:42.593Z,35.78
2018-08-28T15:16:13.055Z,35.50
2018-08-28T15:18:43.731Z,35.58
2018-08-28T15:21:14.073Z,35.08
2018-08-28T15:23:44.582Z,35.24
2018-08-28T15:26:14.958Z,34.98
2018-08-28T15:28:45.850Z,34.91
2018-08-28T15:31:16.261Z,35.09
2018-08-28T15:33:46.651Z,35.43
2018-08-28T15:36:17.065Z,34.03
2018-08-28T15:38:47.515Z,33.80
2018-08-28T15:41:17.895Z,33.98
2018-08-28T15:43:48.050Z,33.43
2018-08-28T15:46:18.853Z,34.19
2018-08-28T15:48:49.286Z,34.74
2018-08-28T15:51:19.781Z,35.04
2018-08-28T15:53:50.305Z,33.76
2018-08-28T15:56:20.687Z,34.04
2018-08-28T15:58:51.446Z,34.93
2018-08-28T16:01:21.923Z,34.49
2018-08-28T16:03:52.312Z,34.36
2018-08-28T16:06:22.563Z,34.09
2018-08-28T16:08:52.700Z,34.55
2018-08-28T16:11:23.278Z,35.24
2018-08-28T16:13:53.356Z,36.01
2018-08-28T16:16:23.442Z,35.24
2018-08-28T16:18:53.916Z,34.52
2018-08-28T16:21:29.198Z,35.26
2018-08-28T16:23:59.776Z,35.82
2018-08-28T16:26:30.992Z,34.90
2018-08-28T16:29:01.340Z,35.50
2018-08-28T16:31:31.712Z,35.08
2018-08-28T16:34:02.227Z,36.62
2018-08-28T16:36:32.926Z,35.52
2018-08-28T16:39:03.363Z,36.52
2018-08-28T16:41:33.830Z,34.88
2018-08-28T16:44:04.294Z,34.90
2018-08-28T16:46:34.922Z,34.98
2018-08-28T16:49:05.308Z,34.71
2018-08-28T16:51:35.982Z,35.77
2018-08-28T16:54:06.403Z,36.18
2018-08-28T16:56:36.778Z,35.61
2018-08-28T16:59:07.549Z,35.26
2018-08-28T17:01:38.032Z,36.10
2018-08-28T17:04:08.514Z,36.14
2018-08-28T17:06:38.920Z,36.03
2018-08-28T17:09:09.660Z,36.46
2018-08-28T17:11:40.017Z,37.24
2018-08-28T17:14:10.402Z,38.13
2018-08-28T17:16:40.762Z,40.99
2018-08-28T17:19:11.184Z,41.50
2018-08-28T17:21:42.105Z,42.52
2018-08-28T17:24:12.518Z,41.94
2018-08-28T17:26:42.918Z,42.00
2018-08-28T17:29:13.248Z,42.10
2018-08-28T17:31:43.580Z,41.12
2018-08-28T17:34:13.939Z,41.78
2018-08-28T17:36:44.368Z,41.53
2018-08-28T17:39:14.728Z,41.83
2018-08-28T17:41:45.077Z,42.12
2018-08-28T17:44:15.450Z,42.89
2018-08-28T17:46:45.872Z,43.73
2018-08-28T17:49:16.384Z,43.61
2018-08-28T17:51:47.374Z,44.08
2018-08-28T17:54:17.745Z,44.15
2018-08-28T17:56:48.077Z,44.42
2018-08-28T17:59:18.455Z,44.93
2018-08-28T18:01:48.825Z,44.65
2018-08-28T18:04:19.205Z,44.53
2018-08-28T18:06:49.637Z,44.68
2018-08-28T18:09:19.958Z,44.08
2018-08-28T18:11:50.360Z,44.23
2018-08-28T18:14:20.730Z,44.14
2018-08-28T18:16:51.448Z,42.74
2018-08-28T18:19:21.856Z,42.83
2018-08-28T18:21:52.626Z,42.80
2018-08-28T18:24:23.006Z,43.06
2018-08-28T18:26:53.361Z,43.35
2018-08-28T18:29:23.754Z,43.24
2018-08-28T18:31:54.151Z,42.86
2018-08-28T18:34:24.895Z,43.45
2018-08-28T18:36:55.439Z,42.86
2018-08-28T18:39:25.839Z,43.07
2018-08-28T18:41:56.219Z,43.00
2018-08-28T18:44:26.957Z,43.64
2018-08-28T18:46:58.154Z,44.73
2018-08-28T18:49:28.658Z,46.74
2018-08-28T18:51:59.499Z,49.25
2018-08-28T18:54:29.881Z,50.49
2018-08-28T18:57:00.425Z,51.92
2018-08-28T18:59:30.869Z,51.38
2018-08-28T19:02:01.203Z,50.90
2018-08-28T19:04:31.543Z,51.10
2018-08-28T19:07:02.245Z,50.96
2018-08-28T19:09:32.779Z,53.19
2018-08-28T19:12:03.099Z,54.13
2018-08-28T19:14:33.609Z,54.59
2018-08-28T19:17:04.531Z,55.31
2018-08-28T19:19:35.135Z,55.69
2018-08-28T19:22:05.551Z,55.38
2018-08-28T19:24:35.957Z,56.35
2018-08-28T19:27:06.479Z,56.69
2018-08-28T19:29:37.780Z,57.38
2018-08-28T19:32:08.261Z,58.47
2018-08-28T19:34:38.990Z,58.27
2018-08-28T19:37:09.643Z,59.01
2018-08-28T19:39:40.049Z,58.97
2018-08-28T19:42:10.447Z,59.53
2018-08-28T19:44:41.109Z,59.97
2018-08-28T19:47:11.467Z,60.11
2018-08-28T19:49:41.862Z,59.54
2018-08-28T19:52:12.427Z,59.71
2018-08-28T19:54:42.891Z,59.59
2018-08-28T19:57:13.450Z,59.89
2018-08-28T19:59:45.429Z,59.93
2018-08-28T20:02:15.845Z,60.68
2018-08-28T20:04:46.229Z,60.94
2018-08-28T20:07:16.611Z,61.58
2018-08-28T20:09:47.063Z,61.32
2018-08-28T20:12:17.827Z,61.43
2018-08-28T20:14:48.250Z,61.37
2018-08-28T20:17:18.956Z,61.27
2018-08-28T20:19:49.804Z,60.34
2018-08-28T20:22:20.302Z,60.32
2018-08-28T20:24:50.653Z,60.12
2018-08-28T20:27:21.722Z,59.83
2018-08-28T20:29:52.566Z,60.17
2018-08-28T20:32:23.155Z,59.91
2018-08-28T20:34:53.637Z,60.02
2018-08-28T20:37:24.121Z,60.13
2018-08-28T20:39:54.673Z,60.44
2018-08-28T20:42:25.088Z,60.54
2018-08-28T20:44:55.504Z,61.13
2018-08-28T20:47:59.875Z,60.94
2018-08-28T20:50:30.344Z,61.40
2018-08-28T20:53:00.720Z,61.98
2018-08-28T20:55:31.296Z,62.50
2018-08-28T20:58:01.767Z,62.65
2018-08-28T21:00:35.504Z,62.26
2018-08-28T21:03:07.051Z,62.72
2018-08-28T21:05:37.476Z,63.46
2018-08-28T21:08:07.824Z,63.72
2018-08-28T21:10:38.168Z,63.99
2018-08-28T21:13:09.411Z,63.80
2018-08-28T21:15:40.274Z,64.28
2018-08-28T21:18:10.714Z,64.61
2018-08-28T21:20:41.240Z,64.47
2018-08-28T21:23:11.605Z,64.83
2018-08-28T21:25:42.088Z,64.19
2018-08-28T21:28:12.506Z,64.27
2018-08-28T21:30:42.980Z,64.80
2018-08-28T21:33:13.416Z,64.87
2018-08-28T21:35:43.967Z,64.86
2018-08-28T21:38:15.260Z,65.40
2018-08-28T21:40:45.768Z,65.29
2018-08-28T21:43:16.181Z,65.84
2018-08-28T21:45:46.542Z,65.54
2018-08-28T21:48:17.040Z,65.70
2018-08-28T21:50:47.653Z,66.35
2018-08-28T21:53:18.097Z,66.30
2018-08-28T21:55:48.448Z,66.28
2018-08-28T21:58:18.799Z,66.11
2018-08-28T22:00:54.312Z,66.60
2018-08-28T22:03:24.770Z,66.19
2018-08-28T22:05:55.243Z,66.56
2018-08-28T22:08:25.975Z,66.95
2018-08-28T22:10:56.771Z,66.80
2018-08-28T22:13:27.199Z,66.89
2018-08-28T22:16:54.334Z,66.99
2018-08-28T22:19:25.192Z,67.27
2018-08-28T22:21:55.670Z,67.68
2018-08-28T22:24:26.085Z,67.91
2018-08-28T22:26:58.621Z,68.13
2018-08-28T22:29:29.280Z,67.73
2018-08-28T22:31:59.706Z,67.82
2018-08-28T22:34:30.448Z,67.94
2018-08-28T22:37:00.870Z,68.12
2018-08-28T22:39:31.474Z,67.90
2018-08-28T22:42:01.889Z,67.82
2018-08-28T22:44:32.412Z,68.05
2018-08-28T22:47:02.800Z,67.96
2018-08-28T22:49:33.172Z,67.94
2018-08-28T22:52:03.540Z,68.03
2018-08-28T22:54:33.839Z,68.47
2018-08-28T22:57:04.358Z,67.59
2018-08-28T22:59:34.734Z,68.11
2018-08-28T23:02:05.138Z,68.53
2018-08-28T23:04:35.494Z,68.54
2018-08-28T23:07:05.974Z,68.22
2018-08-28T23:09:36.307Z,68.53
2018-08-28T23:12:06.950Z,68.41
2018-08-28T23:14:37.456Z,68.15
2018-08-28T23:17:07.831Z,68.71
2018-08-28T23:19:38.152Z,68.96
2018-08-28T23:22:08.626Z,68.93
2018-08-28T23:24:39.152Z,68.77
2018-08-28T23:27:09.556Z,69.19
2018-08-28T23:29:39.957Z,69.33
2018-08-28T23:32:09.770Z,69.42
2018-08-28T23:34:40.186Z,69.67
2018-08-28T23:40:47.121Z,70.18
2018-08-28T23:43:17.454Z,69.92
2018-08-28T23:45:47.800Z,70.59
2018-08-28T23:48:18.240Z,70.70
2018-08-28T23:50:48.771Z,71.18
2018-08-28T23:53:19.142Z,70.73
2018-08-28T23:55:49.486Z,70.70
2018-08-28T23:58:19.803Z,71.00
